»·PEaware :: FFT167 KDEN-KJAC

FFT167 :: KDEN-KJAC

FLIGHT INFORMATION

Flight Status: Arrived
Operator:
Frontier Airlines
More flights by this operator :: More flights under this callsign
Pilot: Hayden Y. (1870)
Aircraft: AIRBUS A320
(A320)
More flights by this aircraft type
Origin: KDEN Denver Intl
United States
Destination: KJAC Jackson Hole
United States
More flights between these airports :: More routes between these airports
Route: DDRTH1 DDRTH DNW JAC
File this flight plan on PilotEdge
Remarks:
Altitude:
(Current/Filed)
36,000ft
Speed:
(Current/Filed)
442kts
Departed: 18-May-20 09:33 AM
Arrived: 18-May-20 10:37 AM
Distance/Time
Traveled:
352nm/1:04
Distance/Time
To Go:
Arrived

Flight Plot

Page will automatically refresh every two minutes.

Flight plan parsing failed; only flown route is shown


Map Options




Map Legend


Flown Route
Filed Route
Departure Airport
Arrival Airport
Navaid (VOR, NDB)
Fix

Horizontal Profiles

Position Reports

Time Latitude Longitude Heading Altitude Ground
Speed
18-May-20 08:21 39.853369 -104.676026 0 5445ft 0kts
18-May-20 08:22 39.853369 -104.676026 0 5445ft 0kts
18-May-20 08:23 39.853369 -104.676026 0 5445ft 0kts
18-May-20 08:24 39.853369 -104.676026 0 5445ft 0kts
18-May-20 08:25 39.853369 -104.676026 0 5445ft 0kts
18-May-20 08:26 39.853369 -104.676026 0 5445ft 0kts
18-May-20 08:27 39.853369 -104.676026 0 5445ft 0kts
18-May-20 08:28 39.853369 -104.676026 0 5445ft 0kts
18-May-20 08:29 39.853369 -104.676026 0 5445ft 0kts
18-May-20 08:30 39.853369 -104.676026 0 5445ft 0kts
18-May-20 08:31 39.853369 -104.676026 0 5445ft 0kts
18-May-20 08:32 39.853369 -104.676026 0 5445ft 0kts
18-May-20 08:33 39.853369 -104.676026 0 5445ft 0kts
18-May-20 08:37 39.853369 -104.676026 0 5445ft 0kts
18-May-20 08:38 39.853369 -104.676026 0 5445ft 0kts
18-May-20 08:39 39.853369 -104.676026 0 5445ft 0kts
18-May-20 08:40 39.853369 -104.676026 0 5445ft 0kts
18-May-20 08:41 39.853369 -104.676026 0 5445ft 0kts
18-May-20 08:42 39.853369 -104.676026 0 5445ft 0kts
18-May-20 08:43 39.853369 -104.676026 0 5445ft 0kts
18-May-20 08:44 39.853369 -104.676026 0 5445ft 0kts
18-May-20 08:45 39.853369 -104.676026 0 5445ft 0kts
18-May-20 08:46 39.853369 -104.676026 0 5445ft 0kts
18-May-20 08:47 39.853369 -104.676026 0 5445ft 0kts
18-May-20 08:48 39.853369 -104.676026 0 5445ft 0kts
18-May-20 08:49 39.853369 -104.676026 0 5445ft 0kts
18-May-20 08:50 39.853369 -104.676026 0 5445ft 0kts
18-May-20 08:51 39.853369 -104.676026 0 5445ft 0kts
18-May-20 08:52 39.853369 -104.676026 0 5445ft 0kts
18-May-20 08:53 39.853369 -104.676026 0 5445ft 0kts
18-May-20 08:54 39.853369 -104.676026 0 5445ft 0kts
18-May-20 08:55 39.853369 -104.676026 0 5445ft 0kts
18-May-20 08:56 39.853369 -104.676026 0 5445ft 0kts
18-May-20 08:57 39.853369 -104.676026 0 5445ft 0kts
18-May-20 08:58 39.853369 -104.676026 0 5445ft 0kts
18-May-20 08:59 39.853369 -104.676026 0 5445ft 0kts
18-May-20 09:00 39.853369 -104.676026 0 5445ft 0kts
18-May-20 09:01 39.853369 -104.676026 0 5445ft 0kts
18-May-20 09:02 39.853369 -104.676026 0 5445ft 0kts
18-May-20 09:03 39.853369 -104.676026 0 5445ft 0kts
18-May-20 09:05 39.853369 -104.676026 0 5445ft 0kts
18-May-20 09:06 39.853369 -104.676026 0 5445ft 0kts
18-May-20 09:07 39.853369 -104.676026 0 5445ft 0kts
18-May-20 09:08 39.853369 -104.676026 0 5445ft 0kts
18-May-20 09:09 39.853369 -104.676026 0 5445ft 0kts
18-May-20 09:10 39.853369 -104.676026 0 5445ft 0kts
18-May-20 09:11 39.853369 -104.676026 0 5445ft 0kts
18-May-20 09:12 39.853369 -104.676026 0 5445ft 0kts
18-May-20 09:13 39.853369 -104.676026 0 5445ft 0kts
18-May-20 09:14 39.853369 -104.676026 0 5445ft 0kts
18-May-20 09:15 39.853369 -104.676026 0 5445ft 0kts
18-May-20 09:16 39.853369 -104.676026 0 5445ft 0kts
18-May-20 09:17 39.853369 -104.676026 0 5445ft 0kts
18-May-20 09:18 39.853369 -104.676026 0 5445ft 0kts
18-May-20 09:19 39.853369 -104.676026 0 5445ft 0kts
18-May-20 09:20 39.853369 -104.676026 0 5445ft 0kts
18-May-20 09:21 39.853369 -104.676026 0 5445ft 0kts
18-May-20 09:22 39.853369 -104.676026 0 5445ft 0kts
18-May-20 09:22 39.853170 -104.676022 353 5445ft 2kts
18-May-20 09:24 39.852786 -104.675723 270 5445ft 0kts
18-May-20 09:24 39.852786 -104.675723 270 5445ft 0kts
18-May-20 09:25 39.852786 -104.675723 270 5445ft 0kts
18-May-20 09:26 39.852784 -104.676265 269 5445ft 8kts
18-May-20 09:27 39.852404 -104.680214 269 5445ft 12kts
18-May-20 09:28 39.851465 -104.684045 171 5445ft 8kts
18-May-20 09:29 39.849050 -104.684101 180 5445ft 9kts
18-May-20 09:30 39.845457 -104.684155 180 5445ft 14kts
18-May-20 09:31 39.841474 -104.684223 180 5445ft 14kts
18-May-20 09:32 39.840754 -104.695051 270 5445ft 128kts
18-May-20 09:33 39.850879 -104.758084 309 7446ft 207kts
18-May-20 09:34 39.890037 -104.827778 304 8696ft 269kts
18-May-20 09:35 39.939603 -104.910629 322 10621ft 309kts
18-May-20 09:36 40.024485 -104.958289 359 12179ft 357kts
18-May-20 09:37 40.120197 -104.916022 35 14447ft 374kts
18-May-20 09:38 40.203707 -104.831123 18 16503ft 386kts
18-May-20 09:39 40.311174 -104.831260 352 18409ft 394kts
18-May-20 09:40 40.420467 -104.854290 347 20229ft 403kts
18-May-20 09:41 40.523895 -104.910556 329 21868ft 408kts
18-May-20 09:42 40.627116 -104.978122 331 23395ft 418kts
18-May-20 09:43 40.732414 -105.046811 330 24813ft 426kts
18-May-20 09:44 40.816819 -105.152668 303 26137ft 423kts
18-May-20 09:45 40.889377 -105.276060 305 27375ft 430kts
18-May-20 09:46 40.963900 -105.400825 304 28527ft 434kts
18-May-20 09:47 41.039184 -105.527516 304 29701ft 436kts
18-May-20 09:48 41.113363 -105.653158 304 31070ft 431kts
18-May-20 09:49 41.186800 -105.777746 303 32321ft 426kts
18-May-20 09:50 41.259286 -105.901511 303 33434ft 422kts
18-May-20 09:51 41.331098 -106.024437 303 34145ft 422kts
18-May-20 09:52 41.402941 -106.147953 303 34154ft 422kts
18-May-20 09:53 41.475365 -106.271402 304 34147ft 423kts
18-May-20 09:54 41.550488 -106.392617 304 34149ft 423kts
18-May-20 09:55 41.625152 -106.514058 304 34126ft 423kts
18-May-20 09:56 41.699818 -106.635823 304 34080ft 424kts
18-May-20 09:57 41.774418 -106.758051 304 34069ft 424kts
18-May-20 09:58 41.849290 -106.881176 304 34069ft 426kts
18-May-20 09:59 41.923904 -107.004391 304 34066ft 427kts
18-May-20 10:00 41.998835 -107.128677 303 34056ft 428kts
18-May-20 10:01 42.073458 -107.252869 303 34104ft 427kts
18-May-20 10:02 42.148074 -107.377651 303 34095ft 427kts
18-May-20 10:03 42.222242 -107.502222 303 34048ft 425kts
18-May-20 10:04 42.295919 -107.626428 302 34000ft 421kts
18-May-20 10:05 42.369918 -107.751721 303 34018ft 428kts
18-May-20 10:06 42.444026 -107.877716 302 34019ft 428kts
18-May-20 10:07 42.518235 -108.004438 302 34026ft 428kts
18-May-20 10:08 42.592192 -108.131200 302 33977ft 427kts
18-May-20 10:09 42.665344 -108.257147 301 33930ft 422kts
18-May-20 10:10 42.737976 -108.382891 301 33930ft 428kts
18-May-20 10:11 42.811739 -108.510828 301 33935ft 428kts
18-May-20 10:12 42.885231 -108.639128 301 33920ft 428kts
18-May-20 10:13 42.958506 -108.767465 300 33878ft 428kts
18-May-20 10:14 43.031232 -108.895392 300 33723ft 422kts
18-May-20 10:15 43.101967 -109.020346 300 31665ft 408kts
18-May-20 10:16 43.170133 -109.141161 300 29723ft 391kts
18-May-20 10:17 43.235098 -109.257052 299 27854ft 379kts
18-May-20 10:18 43.298783 -109.370935 299 25997ft 373kts
18-May-20 10:19 43.361313 -109.483206 300 24194ft 367kts
18-May-20 10:20 43.422528 -109.593562 299 22471ft 360kts
18-May-20 10:21 43.482903 -109.702674 299 20819ft 355kts
18-May-20 10:22 43.541879 -109.809824 299 19086ft 348kts
18-May-20 10:23 43.598933 -109.913574 299 17729ft 329kts
18-May-20 10:24 43.653593 -110.013701 299 16461ft 322kts
18-May-20 10:25 43.707212 -110.112079 300 16020ft 321kts
18-May-20 10:26 43.761438 -110.211984 300 14305ft 336kts
18-May-20 10:27 43.815189 -110.310057 298 13803ft 292kts
18-May-20 10:28 43.824531 -110.394516 255 13473ft 224kts
18-May-20 10:29 43.818257 -110.475815 257 12614ft 191kts
18-May-20 10:30 43.810725 -110.542721 240 11415ft 169kts
18-May-20 10:31 43.789985 -110.601274 241 9943ft 166kts
18-May-20 10:32 43.758117 -110.647183 217 9389ft 165kts
18-May-20 10:33 43.719809 -110.682783 200 8595ft 168kts
18-May-20 10:34 43.676182 -110.704133 200 7739ft 164kts
18-May-20 10:35 43.633345 -110.725057 200 6873ft 161kts
18-May-20 10:36 43.600298 -110.741151 198 6465ft 20kts
18-May-20 10:37 43.602284 -110.738618 18 6465ft 15kts
18-May-20 10:38 43.602756 -110.737578 107 6465ft 0kts
18-May-20 10:39 43.602746 -110.737534 107 6465ft 0kts
18-May-20 10:40 43.602746 -110.737534 107 6465ft 0kts
18-May-20 10:41 43.602746 -110.737534 107 6465ft 0kts
18-May-20 10:42 43.602746 -110.737534 107 6465ft 0kts
18-May-20 10:43 43.602746 -110.737534 107 6465ft 0kts
18-May-20 10:44 43.602746 -110.737534 107 6465ft 0kts

Navigation Log

Ident Type
Flight plan parsing failed, navigation log unavailable